Time;durP1;ratioP1;P1;durP2;ratioP2;P2;SDS_P1;SDS_P2;PMS_P1;PMS_P2;Temp;Humidity;BMP_temperature;BMP_pressure;BME280_temperature;BME280_humidity;BME280_pressure;Samples;Min_cycle;Max_cycle;Signal;HPM_P1;HPM_P2
2021/07/31 00:01:17;;;;;;;18.92;9.20;;;;;;;25.63;56.07;99473.69;5054875;28;20071;-75
2021/07/31 00:03:46;;;;;;;14.52;8.55;;;;;;;25.60;55.79;99474.09;5054221;28;20049;-75
2021/07/31 00:06:29;;;;;;;17.65;9.50;;;;;;;25.59;56.17;99471.59;5054889;28;20487;-75
2021/07/31 00:08:58;;;;;;;16.75;8.70;;;;;;;25.49;56.41;99471.16;5054214;28;20047;-75
2021/07/31 00:11:27;;;;;;;15.52;8.23;;;;;;;25.40;57.49;99481.44;5054231;28;20049;-75
2021/07/31 00:13:55;;;;;;;12.23;8.25;;;;;;;25.37;57.44;99485.38;5054207;28;20045;-75
2021/07/31 00:16:26;;;;;;;16.08;9.00;;;;;;;25.42;56.46;99482.06;5054665;28;20059;-75
2021/07/31 00:18:54;;;;;;;14.00;8.75;;;;;;;25.41;57.56;99488.56;5053843;28;20553;-75
2021/07/31 00:21:25;;;;;;;13.55;8.07;;;;;;;25.37;58.04;99495.47;5054337;28;20476;-76
2021/07/31 00:23:54;;;;;;;17.08;8.50;;;;;;;25.28;58.96;99493.97;5054004;28;20053;-76
2021/07/31 00:26:23;;;;;;;16.67;8.38;;;;;;;25.20;58.93;99505.94;5054517;28;20131;-73
2021/07/31 00:28:54;;;;;;;14.52;8.23;;;;;;;25.14;59.40;99505.91;5053801;28;20041;-75
2021/07/31 00:31:23;;;;;;;16.88;9.05;;;;;;;25.15;59.39;99497.50;5054091;28;20136;-75
2021/07/31 00:33:52;;;;;;;14.00;8.05;;;;;;;25.17;59.51;99500.88;5053628;28;20048;-75
2021/07/31 00:36:20;;;;;;;16.10;8.85;;;;;;;25.13;59.30;99490.59;5053874;28;20087;-75
2021/07/31 00:38:48;;;;;;;13.68;8.23;;;;;;;25.09;59.72;99487.41;5053521;28;20041;-74
2021/07/31 00:41:19;;;;;;;13.05;7.95;;;;;;;25.03;59.85;99488.25;5054260;28;20143;-76
2021/07/31 00:43:48;;;;;;;16.80;9.18;;;;;;;24.99;60.15;99485.03;5052888;28;20045;-76
2021/07/31 00:46:18;;;;;;;14.60;7.93;;;;;;;24.92;60.50;99480.63;5053501;28;20051;-75
2021/07/31 00:48:47;;;;;;;14.82;8.18;;;;;;;24.87;60.68;99473.03;5053732;28;20068;-74
2021/07/31 00:51:16;;;;;;;17.00;8.77;;;;;;;24.86;60.81;99476.81;5053687;28;20048;-73
2021/07/31 00:53:48;;;;;;;13.95;8.50;;;;;;;24.93;60.43;99474.09;5053957;28;20045;-78
2021/07/31 00:56:17;;;;;;;14.07;9.10;;;;;;;24.96;59.45;99480.00;5053835;28;20044;-78
2021/07/31 00:58:46;;;;;;;15.85;8.70;;;;;;;25.01;58.14;99468.47;5053513;28;20436;-75
2021/07/31 01:01:16;;;;;;;12.65;7.88;;;;;;;25.05;59.46;99470.59;5052467;28;20084;-74
2021/07/31 01:03:44;;;;;;;15.57;8.50;;;;;;;24.94;60.60;99454.81;5053393;28;20045;-74
2021/07/31 01:06:13;;;;;;;14.35;8.43;;;;;;;24.89;60.33;99449.09;5053256;28;20067;-78
2021/07/31 01:08:41;;;;;;;15.68;9.05;;;;;;;24.83;60.69;99456.25;5053274;28;20051;-73
2021/07/31 01:11:10;;;;;;;14.00;8.50;;;;;;;24.93;59.69;99447.66;5051937;28;20403;-74
2021/07/31 01:13:39;;;;;;;13.50;8.85;;;;;;;25.09;59.52;99438.28;5053267;28;20123;-74
2021/07/31 01:16:08;;;;;;;15.82;8.80;;;;;;;24.93;59.13;99444.94;5051944;28;20399;-73
2021/07/31 01:18:38;;;;;;;13.25;8.15;;;;;;;24.89;59.37;99438.19;5053494;28;20376;-75
2021/07/31 01:21:07;;;;;;;14.85;8.70;;;;;;;24.75;60.15;99444.66;5053023;28;20045;-75
2021/07/31 01:23:39;;;;;;;14.45;8.55;;;;;;;24.79;60.48;99435.84;5053205;28;20387;-74
2021/07/31 01:26:07;;;;;;;13.60;8.80;;;;;;;24.84;61.18;99440.72;5051920;28;20041;-76
2021/07/31 01:28:35;;;;;;;14.57;8.85;;;;;;;24.91;60.97;99438.84;5052495;28;20048;-75
2021/07/31 01:31:04;;;;;;;13.40;8.35;;;;;;;24.89;60.51;99440.94;5051775;28;20051;-74
2021/07/31 01:33:32;;;;;;;15.05;9.30;;;;;;;24.81;61.11;99431.06;5052374;28;20132;-74
2021/07/31 01:36:02;;;;;;;13.55;9.10;;;;;;;24.79;61.44;99421.38;5051905;28;20041;-73
2021/07/31 01:38:30;;;;;;;17.42;9.13;;;;;;;24.75;62.02;99422.84;5052210;28;20049;-75
2021/07/31 01:41:00;;;;;;;15.57;8.63;;;;;;;24.69;62.13;99419.03;5051796;28;20123;-77
2021/07/31 01:43:28;;;;;;;14.85;9.07;;;;;;;24.67;62.20;99426.59;5052241;28;20041;-77
2021/07/31 01:45:59;;;;;;;13.57;8.68;;;;;;;24.60;62.19;99422.97;5051722;28;20044;-75
2021/07/31 01:48:28;;;;;;;13.38;9.05;;;;;;;24.66;62.10;99411.28;5050946;28;20052;-75
2021/07/31 01:50:56;;;;;;;13.05;8.98;;;;;;;24.59;62.57;99412.28;5051620;28;20389;-75
2021/07/31 01:53:24;;;;;;;14.63;9.05;;;;;;;24.64;61.95;99409.81;5051606;28;20041;-77
2021/07/31 01:55:52;;;;;;;15.70;8.75;;;;;;;24.63;60.83;99410.84;5049677;28;20442;-77
2021/07/31 01:58:24;;;;;;;13.93;8.57;;;;;;;24.60;60.92;99401.16;5051919;28;20041;-77
2021/07/31 02:00:53;;;;;;;16.48;9.50;;;;;;;24.62;60.19;99398.25;5051876;28;20397;-78
2021/07/31 02:03:22;;;;;;;13.52;8.40;;;;;;;24.69;61.15;99407.28;5051961;28;20051;-77
2021/07/31 02:05:51;;;;;;;13.95;9.15;;;;;;;24.63;62.10;99406.22;5051952;28;20045;-76
2021/07/31 02:08:19;;;;;;;16.52;9.20;;;;;;;24.59;62.35;99390.47;5052165;28;20048;-74
2021/07/31 02:10:48;;;;;;;12.50;8.60;;;;;;;24.53;61.98;99392.97;5051673;28;20045;-76
2021/07/31 02:13:17;;;;;;;13.68;9.88;;;;;;;24.51;61.85;99403.25;5051541;28;20140;-78
2021/07/31 02:15:47;;;;;;;15.20;9.60;;;;;;;24.52;61.23;99388.56;5050811;28;20488;-77
2021/07/31 02:18:16;;;;;;;15.40;9.45;;;;;;;24.65;62.03;99373.31;5049985;28;20565;-76
2021/07/31 02:20:45;;;;;;;13.07;8.75;;;;;;;24.65;61.75;99378.75;5051479;28;20056;-76
2021/07/31 02:23:13;;;;;;;15.13;8.83;;;;;;;24.72;62.05;99407.75;5008298;28;1222832;-74
2021/07/31 02:25:41;;;;;;;13.10;9.00;;;;;;;24.75;61.68;99404.59;5052612;28;20041;-75
2021/07/31 02:28:12;;;;;;;13.32;9.07;;;;;;;24.63;62.40;99413.56;5052171;28;20072;-75
2021/07/31 02:30:40;;;;;;;17.88;9.05;;;;;;;24.56;62.38;99410.81;5052341;28;20447;-75
2021/07/31 02:33:10;;;;;;;14.32;9.13;;;;;;;24.46;63.00;99403.00;5051893;28;20044;-74
2021/07/31 02:35:38;;;;;;;16.13;9.27;;;;;;;24.49;62.41;99416.22;5052526;28;20128;-73
2021/07/31 02:38:06;;;;;;;14.65;9.52;;;;;;;24.54;61.80;99405.56;5051994;28;20048;-73
2021/07/31 02:40:35;;;;;;;21.00;10.05;;;;;;;24.51;61.84;99408.69;5052331;28;20247;-74
2021/07/31 02:43:03;;;;;;;15.98;9.38;;;;;;;24.48;62.10;99428.16;5051990;28;20048;-74
2021/07/31 02:45:31;;;;;;;18.13;9.57;;;;;;;24.73;61.33;99439.41;5052119;28;20049;-73
2021/07/31 02:48:02;;;;;;;14.50;9.30;;;;;;;24.64;62.34;99434.34;5051808;28;20041;-75
2021/07/31 02:50:31;;;;;;;17.50;9.80;;;;;;;24.60;63.45;99455.69;5052218;28;20480;-74
2021/07/31 02:53:00;;;;;;;17.10;9.60;;;;;;;24.42;64.76;99463.59;5051764;28;20045;-74
2021/07/31 02:55:31;;;;;;;14.10;8.63;;;;;;;24.58;64.57;99462.41;5052164;28;20051;-74
2021/07/31 02:57:59;;;;;;;12.68;9.68;;;;;;;24.33;65.57;99465.63;5051983;28;20069;-75
2021/07/31 03:00:27;;;;;;;15.98;9.68;;;;;;;24.39;65.40;99463.97;5051996;28;20385;-74
2021/07/31 03:02:55;;;;;;;12.70;9.50;;;;;;;24.35;65.52;99474.44;5052168;28;20091;-74
2021/07/31 03:05:24;;;;;;;12.20;9.45;;;;;;;24.30;66.31;99471.41;5052802;28;20041;-74
2021/07/31 03:07:54;;;;;;;16.75;9.57;;;;;;;24.28;66.37;99468.06;5055718;28;20045;-74
2021/07/31 03:10:25;;;;;;;16.15;9.77;;;;;;;24.39;65.89;99481.16;5055666;28;20037;-74
2021/07/31 03:12:53;;;;;;;17.65;9.43;;;;;;;24.52;65.01;99470.34;5055431;28;20049;-74
2021/07/31 03:15:22;;;;;;;15.95;9.63;;;;;;;24.51;65.51;99481.44;5055460;28;20547;-74
2021/07/31 03:17:51;;;;;;;14.40;9.07;;;;;;;24.53;65.90;99490.28;5055344;28;20044;-73
2021/07/31 03:20:21;;;;;;;16.13;9.57;;;;;;;24.53;66.07;99493.84;5055144;28;20065;-74
2021/07/31 03:22:49;;;;;;;13.50;9.00;;;;;;;24.85;64.52;99491.50;5055341;28;20087;-73
2021/07/31 03:25:19;;;;;;;13.95;9.52;;;;;;;24.69;64.17;99495.38;5054763;28;20068;-73
2021/07/31 03:27:48;;;;;;;13.23;9.38;;;;;;;24.48;64.22;99496.31;5055512;28;20432;-73
2021/07/31 03:30:16;;;;;;;17.40;8.98;;;;;;;24.42;63.82;99491.69;5055007;28;20043;-74
2021/07/31 03:32:45;;;;;;;13.63;7.90;;;;;;;24.48;63.07;99485.41;5055173;28;20048;-73
2021/07/31 03:35:13;;;;;;;12.18;8.20;;;;;;;24.51;62.97;99479.56;5054808;28;20043;-74
2021/07/31 03:37:41;;;;;;;12.55;7.82;;;;;;;24.41;63.98;99487.25;5055017;28;20102;-73
2021/07/31 03:40:12;;;;;;;12.88;7.22;;;;;;;24.30;64.76;99515.03;5054685;28;20052;-74
2021/07/31 03:42:42;;;;;;;9.13;6.20;;;;;;;23.93;67.36;99508.88;5055023;28;20045;-76
2021/07/31 03:45:11;;;;;;;9.68;6.10;;;;;;;23.60;70.75;99513.16;5054713;28;20040;-75
2021/07/31 03:47:39;;;;;;;9.57;6.35;;;;;;;23.39;72.03;99517.53;5054889;28;20041;-75
2021/07/31 03:50:09;;;;;;;9.85;5.97;;;;;;;23.27;74.10;99518.22;5054593;28;20045;-77
2021/07/31 03:52:38;;;;;;;9.25;6.68;;;;;;;23.25;74.87;99529.28;5054945;28;20488;-83
2021/07/31 03:55:08;;;;;;;9.60;6.22;;;;;;;23.11;76.42;99535.63;5054705;28;20438;-77
2021/07/31 03:57:36;;;;;;;9.82;6.93;;;;;;;23.08;78.41;99527.84;5054760;28;20045;-73
2021/07/31 04:00:08;;;;;;;9.40;6.55;;;;;;;23.09;76.90;99530.38;5056887;28;20601;-72
2021/07/31 04:02:36;;;;;;;11.05;7.55;;;;;;;23.06;79.79;99529.88;5054555;28;20056;-74
2021/07/31 04:05:05;;;;;;;9.73;7.20;;;;;;;23.00;77.68;99520.63;5054199;28;20044;-75
2021/07/31 04:07:36;;;;;;;9.68;6.70;;;;;;;23.04;78.08;99491.16;5054470;28;20450;-75
2021/07/31 04:10:06;;;;;;;9.52;6.75;;;;;;;22.98;78.38;99475.63;5054296;28;20152;-76
2021/07/31 04:12:34;;;;;;;9.02;6.53;;;;;;;22.92;77.64;99465.50;5054596;28;20045;-75
2021/07/31 04:15:03;;;;;;;10.48;7.10;;;;;;;22.92;79.08;99460.06;5054284;28;20102;-73
2021/07/31 04:17:34;;;;;;;9.63;6.35;;;;;;;22.81;77.75;99448.63;5053232;28;20041;-74
2021/07/31 04:20:04;;;;;;;8.50;6.10;;;;;;;22.84;75.18;99450.97;5054278;28;20069;-76
2021/07/31 04:22:33;;;;;;;7.50;5.43;;;;;;;22.82;75.32;99457.59;5052850;28;20048;-76
2021/07/31 04:25:03;;;;;;;8.52;6.00;;;;;;;22.91;74.28;99459.22;5053622;28;20076;-76
2021/07/31 04:27:33;;;;;;;9.65;5.72;;;;;;;22.87;75.12;99481.53;5054370;28;20040;-76
2021/07/31 04:30:06;;;;;;;7.25;5.45;;;;;;;23.05;74.89;99481.97;5054304;28;20051;-77
2021/07/31 04:32:36;;;;;;;7.47;5.30;;;;;;;23.03;73.27;99493.03;5054311;28;20040;-79
2021/07/31 04:35:05;;;;;;;8.35;5.40;;;;;;;23.08;73.26;99503.38;5054168;28;20091;-79
2021/07/31 04:37:34;;;;;;;7.93;5.28;;;;;;;23.12;72.98;99520.97;5054100;28;20406;-76
2021/07/31 04:40:03;;;;;;;8.80;4.95;;;;;;;23.18;71.45;99524.81;5053902;28;20048;-76
2021/07/31 04:42:32;;;;;;;10.07;5.82;;;;;;;23.18;73.41;99530.25;5053939;28;20044;-76
2021/07/31 04:45:02;;;;;;;8.43;5.85;;;;;;;23.29;72.56;99540.66;5054165;28;20052;-76
2021/07/31 04:47:38;;;;;;;10.85;6.35;;;;;;;23.28;74.33;99545.25;5054121;28;20048;-75
2021/07/31 04:50:08;;;;;;;10.20;6.20;;;;;;;23.22;76.12;99548.72;5053654;28;20082;-74
2021/07/31 04:52:37;;;;;;;10.15;6.45;;;;;;;23.45;75.49;99553.16;5054048;28;20095;-75
2021/07/31 04:55:07;;;;;;;8.32;5.40;;;;;;;23.26;75.11;99550.03;5053601;28;20124;-77
2021/07/31 04:57:35;;;;;;;10.15;6.10;;;;;;;23.20;76.09;99541.78;5053948;28;20037;-76
2021/07/31 05:00:06;;;;;;;10.82;6.47;;;;;;;23.04;77.50;99543.69;5053319;28;20049;-76
2021/07/31 05:02:34;;;;;;;9.50;6.15;;;;;;;23.06;77.81;99547.03;5053497;28;20095;-76
2021/07/31 05:05:07;;;;;;;11.20;6.65;;;;;;;23.15;77.05;99542.34;5053521;28;20048;-76
2021/07/31 05:07:35;;;;;;;12.07;7.43;;;;;;;23.28;75.93;99547.97;5053862;28;20052;-76
2021/07/31 05:10:03;;;;;;;10.00;6.50;;;;;;;23.26;75.85;99554.59;5053679;28;20033;-75
2021/07/31 05:12:32;;;;;;;10.52;6.60;;;;;;;23.26;75.67;99555.47;5053350;28;20049;-74
2021/07/31 05:15:00;;;;;;;8.98;5.90;;;;;;;23.45;73.60;99548.59;5053397;28;20077;-75
2021/07/31 05:17:28;;;;;;;8.45;5.20;;;;;;;23.33;73.20;99544.66;5053100;28;20480;-75
2021/07/31 05:19:59;;;;;;;10.27;5.80;;;;;;;23.22;73.52;99540.56;5053177;28;20044;-76
2021/07/31 05:22:28;;;;;;;10.50;6.28;;;;;;;23.34;74.04;99536.28;5051846;28;20091;-75
2021/07/31 05:24:57;;;;;;;9.45;5.63;;;;;;;23.28;73.75;99536.25;5053000;28;20049;-74
2021/07/31 05:27:25;;;;;;;10.82;5.65;;;;;;;23.33;72.93;99534.63;5053002;28;20607;-74
2021/07/31 05:29:53;;;;;;;6.55;4.95;;;;;;;23.39;72.23;99533.84;5052934;28;20045;-74
2021/07/31 05:32:22;;;;;;;7.93;5.75;;;;;;;23.33;72.82;99533.78;5052848;28;20041;-74
2021/07/31 05:34:55;;;;;;;8.32;5.43;;;;;;;23.37;72.43;99535.94;5053223;28;20123;-76
2021/07/31 05:37:25;;;;;;;9.13;5.20;;;;;;;23.49;71.72;99539.00;5052878;28;20452;-76
2021/07/31 05:39:55;;;;;;;9.60;5.38;;;;;;;23.48;71.90;99533.75;5052914;28;20098;-75
2021/07/31 05:42:25;;;;;;;8.00;5.75;;;;;;;23.50;72.15;99537.94;5052797;28;20446;-75
2021/07/31 05:44:57;;;;;;;9.93;5.53;;;;;;;23.74;70.71;99533.19;5053085;28;20099;-75
2021/07/31 05:47:27;;;;;;;7.70;5.22;;;;;;;23.82;70.63;99528.44;5052992;28;20494;-75
2021/07/31 05:49:58;;;;;;;8.30;5.80;;;;;;;23.89;70.04;99520.34;5052810;28;20158;-76
2021/07/31 05:52:28;;;;;;;9.18;5.65;;;;;;;23.94;69.67;99526.06;5052516;28;20064;-75
2021/07/31 05:55:00;;;;;;;9.63;5.00;;;;;;;23.86;69.93;99523.47;5052757;28;20095;-77
2021/07/31 05:57:29;;;;;;;7.60;5.47;;;;;;;23.89;69.31;99523.06;5052578;28;20415;-76
2021/07/31 05:59:57;;;;;;;7.45;5.28;;;;;;;24.01;67.91;99526.94;5052966;28;20048;-77
2021/07/31 06:02:28;;;;;;;8.57;5.28;;;;;;;23.98;67.66;99530.06;5052696;28;20149;-76
2021/07/31 06:04:56;;;;;;;8.07;5.50;;;;;;;24.01;67.65;99526.94;5052751;28;20037;-77
2021/07/31 06:07:24;;;;;;;6.80;4.70;;;;;;;24.17;67.54;99526.69;5052441;28;20047;-76
2021/07/31 06:09:53;;;;;;;7.38;4.95;;;;;;;24.16;66.68;99530.44;5051445;28;20060;-76
2021/07/31 06:12:23;;;;;;;7.13;4.80;;;;;;;24.22;67.16;99526.06;5052394;28;20045;-77
2021/07/31 06:14:51;;;;;;;8.35;5.15;;;;;;;24.22;66.98;99515.16;5052785;28;20071;-76
2021/07/31 06:17:20;;;;;;;7.07;5.57;;;;;;;24.22;66.79;99512.44;5052602;28;20045;-81
2021/07/31 06:19:48;;;;;;;7.57;5.22;;;;;;;24.28;66.89;99514.38;5053104;28;20484;-82
2021/07/31 06:22:16;;;;;;;7.70;5.25;;;;;;;24.22;67.13;99509.72;5052576;28;20128;-81
2021/07/31 06:24:44;;;;;;;8.43;4.88;;;;;;;24.47;65.96;99510.16;5052902;28;20053;-81
2021/07/31 06:27:15;;;;;;;7.00;4.90;;;;;;;24.79;63.46;99519.56;5052697;28;20063;-81
2021/07/31 06:29:45;;;;;;;8.20;5.50;;;;;;;24.62;64.46;99523.69;5053137;28;20399;-81
2021/07/31 06:32:13;;;;;;;7.53;5.25;;;;;;;24.79;64.76;99527.75;5052395;28;20045;-81
2021/07/31 06:34:41;;;;;;;8.05;4.97;;;;;;;25.06;64.27;99513.22;5052849;28;20376;-82
2021/07/31 06:37:09;;;;;;;7.38;4.70;;;;;;;24.99;63.27;99511.47;5052561;28;20119;-82
2021/07/31 06:39:40;;;;;;;7.60;5.05;;;;;;;24.96;63.98;99515.44;5052844;28;20147;-81
2021/07/31 06:42:08;;;;;;;9.43;5.00;;;;;;;24.83;64.87;99513.50;5055587;28;20041;-82
2021/07/31 06:44:36;;;;;;;9.52;5.28;;;;;;;24.93;64.24;99506.84;5056392;28;20053;-81
2021/07/31 06:47:06;;;;;;;7.15;5.03;;;;;;;24.83;63.95;99512.66;5056223;28;20098;-75
2021/07/31 06:49:34;;;;;;;7.90;4.55;;;;;;;25.39;61.86;99515.25;5055896;28;20041;-75
2021/07/31 06:52:02;;;;;;;9.00;5.20;;;;;;;25.56;61.63;99507.47;5056372;28;20049;-77
2021/07/31 06:54:31;;;;;;;6.75;4.93;;;;;;;25.57;61.55;99511.91;5055721;28;20443;-74
2021/07/31 06:56:59;;;;;;;9.00;4.85;;;;;;;25.42;62.05;99508.50;5055150;28;20049;-75
2021/07/31 06:59:30;;;;;;;7.20;5.03;;;;;;;25.25;63.20;99506.16;5055604;28;20444;-75
2021/07/31 07:01:58;;;;;;;7.07;5.03;;;;;;;25.22;62.29;99505.72;5055804;28;20044;-75
2021/07/31 07:04:28;;;;;;;8.00;5.30;;;;;;;24.99;63.34;99504.13;5055682;28;20041;-76
2021/07/31 07:06:56;;;;;;;7.32;4.82;;;;;;;24.98;63.28;99507.06;5055830;28;20103;-75
2021/07/31 07:09:24;;;;;;;8.23;4.93;;;;;;;25.01;63.33;99510.25;5055386;28;20073;-75
2021/07/31 07:11:56;;;;;;;7.45;5.25;;;;;;;24.94;63.16;99517.53;5055562;28;20045;-75
2021/07/31 07:14:25;;;;;;;6.75;5.00;;;;;;;24.94;63.67;99516.72;5055133;28;20536;-75
2021/07/31 07:16:53;;;;;;;8.38;4.88;;;;;;;24.92;63.59;99516.91;5055805;28;20083;-75
2021/07/31 07:19:21;;;;;;;7.03;4.68;;;;;;;24.75;64.25;99526.47;5055414;28;20049;-75
2021/07/31 07:21:51;;;;;;;8.15;5.22;;;;;;;24.77;64.43;99524.38;5055659;28;20051;-77
2021/07/31 07:24:19;;;;;;;7.47;5.18;;;;;;;24.81;64.28;99520.22;5055240;28;20056;-75
2021/07/31 07:26:47;;;;;;;8.30;5.20;;;;;;;24.91;63.96;99531.59;5054030;28;20049;-76
2021/07/31 07:29:15;;;;;;;6.68;5.13;;;;;;;24.96;63.70;99531.81;5055164;28;20047;-79
2021/07/31 07:31:44;;;;;;;9.75;5.25;;;;;;;24.85;64.28;99532.41;5055220;28;20041;-77
2021/07/31 07:34:12;;;;;;;8.98;6.15;;;;;;;24.93;63.81;99537.69;5055339;28;20045;-78
2021/07/31 07:36:40;;;;;;;8.02;5.40;;;;;;;24.93;63.84;99539.56;5055108;28;20053;-79
2021/07/31 07:39:10;;;;;;;8.07;5.03;;;;;;;24.78;63.96;99540.53;5055346;28;20048;-79
2021/07/31 07:41:38;;;;;;;8.35;5.32;;;;;;;24.84;63.81;99536.16;5055042;28;20128;-77
2021/07/31 07:44:06;;;;;;;8.43;5.80;;;;;;;24.88;63.13;99529.25;5055457;28;20053;-78
2021/07/31 07:46:35;;;;;;;7.97;5.40;;;;;;;24.79;64.06;99534.03;5053462;28;20499;-76
2021/07/31 07:49:03;;;;;;;9.88;5.47;;;;;;;24.72;64.09;99532.34;5054940;28;20488;-78
2021/07/31 07:51:31;;;;;;;7.47;5.63;;;;;;;24.74;64.34;99531.09;5054652;28;20041;-76
2021/07/31 07:53:59;;;;;;;9.57;5.35;;;;;;;24.77;64.71;99532.56;5054691;28;20045;-74
2021/07/31 07:56:29;;;;;;;9.25;5.30;;;;;;;24.81;64.28;99539.31;5054576;28;20040;-76
2021/07/31 07:58:59;;;;;;;8.65;5.47;;;;;;;24.96;63.50;99537.28;5050909;28;20044;-74
2021/07/31 08:01:29;;;;;;;10.02;5.40;;;;;;;25.13;64.13;99543.28;5044971;28;20045;-74
2021/07/31 08:03:58;;;;;;;9.68;5.43;;;;;;;25.36;62.53;99546.50;5034979;28;20104;-74
2021/07/31 08:06:26;;;;;;;9.40;5.85;;;;;;;25.53;62.22;99543.41;5034872;28;20052;-74
2021/07/31 08:08:54;;;;;;;9.27;5.95;;;;;;;26.00;60.12;99545.19;5035055;28;20052;-74
2021/07/31 08:11:22;;;;;;;8.90;6.05;;;;;;;26.13;59.72;99537.00;5034946;28;20048;-74
2021/07/31 08:13:55;;;;;;;8.57;5.63;;;;;;;26.42;58.58;99537.66;5034887;28;20046;-74
2021/07/31 08:16:23;;;;;;;7.82;5.55;;;;;;;27.06;56.38;99534.16;5034605;28;20041;-73
2021/07/31 08:18:51;;;;;;;9.63;5.30;;;;;;;27.06;56.75;99535.00;5034562;28;20056;-74
2021/07/31 08:21:20;;;;;;;11.10;5.22;;;;;;;27.17;56.17;99535.38;5034476;28;20049;-75
2021/07/31 08:23:49;;;;;;;7.38;5.22;;;;;;;27.27;56.51;99533.84;5034383;28;20452;-73
2021/07/31 08:26:18;;;;;;;9.55;5.18;;;;;;;27.28;55.86;99532.78;5034624;28;20038;-77
2021/07/31 08:28:51;;;;;;;8.60;5.75;;;;;;;27.28;55.57;99535.53;5045764;28;20037;-75
2021/07/31 08:31:20;;;;;;;7.78;4.93;;;;;;;27.12;55.79;99544.25;5074444;28;20044;-76
2021/07/31 08:33:48;;;;;;;6.70;4.95;;;;;;;27.30;55.76;99540.78;5072946;28;20053;-76
2021/07/31 08:36:17;;;;;;;8.15;5.35;;;;;;;27.30;55.76;99544.34;5074283;28;20036;-77
2021/07/31 08:38:45;;;;;;;9.80;5.25;;;;;;;27.37;55.61;99544.34;5074511;28;20044;-77
2021/07/31 08:41:15;;;;;;;8.63;5.05;;;;;;;27.42;55.34;99554.66;5074096;28;20049;-75
2021/07/31 08:43:43;;;;;;;7.43;4.95;;;;;;;27.50;55.33;99549.72;5074585;28;20040;-75
2021/07/31 08:46:12;;;;;;;7.95;5.20;;;;;;;27.51;54.94;99553.34;5074303;28;20044;-74
2021/07/31 08:48:43;;;;;;;8.40;5.80;;;;;;;27.47;55.10;99547.44;5074423;28;20048;-73
2021/07/31 08:51:15;;;;;;;8.10;5.53;;;;;;;27.63;54.03;99554.31;5074207;28;20044;-74
2021/07/31 08:53:44;;;;;;;8.07;5.73;;;;;;;27.63;53.33;99551.59;5074035;28;20049;-75
2021/07/31 08:56:13;;;;;;;8.48;5.60;;;;;;;27.53;53.24;99546.59;5073711;28;20479;-76
2021/07/31 08:58:41;;;;;;;8.27;6.20;;;;;;;27.42;53.67;99544.53;5069374;28;20057;-75
2021/07/31 09:01:13;;;;;;;;;;;;;;;27.42;54.42;99538.22;5054488;28;20052;-75
2021/07/31 09:03:47;;;;;;;10.32;6.55;;;;;;;27.25;54.85;99541.44;5053639;28;19928;-78
2021/07/31 09:06:36;;;;;;;7.40;5.47;;;;;;;27.12;55.87;99536.03;5053919;28;20044;-76
2021/07/31 09:09:04;;;;;;;7.35;5.50;;;;;;;27.19;55.87;99538.72;5049413;28;20092;-77
2021/07/31 09:11:33;;;;;;;9.27;6.22;;;;;;;27.05;55.63;99537.97;5053793;28;20129;-78
2021/07/31 09:14:10;;;;;;;10.10;6.15;;;;;;;26.92;56.04;99537.94;5053919;28;20073;-77
2021/07/31 09:16:39;;;;;;;9.90;6.55;;;;;;;26.78;57.25;99534.44;5053722;28;20045;-78
2021/07/31 09:19:10;;;;;;;9.70;6.15;;;;;;;26.88;57.44;99528.50;5053683;28;20400;-76
2021/07/31 09:21:40;;;;;;;10.38;6.50;;;;;;;27.03;56.76;99526.41;5053482;28;20452;-75
2021/07/31 09:24:16;;;;;;;10.27;6.35;;;;;;;27.07;57.18;99523.00;5053564;28;20106;-74
2021/07/31 09:26:48;;;;;;;10.13;6.50;;;;;;;27.14;56.71;99513.94;5053608;28;20045;-73
2021/07/31 09:29:20;;;;;;;9.05;6.00;;;;;;;27.17;56.32;99518.97;5062418;28;20064;-74
2021/07/31 09:31:51;;;;;;;8.88;6.22;;;;;;;27.30;56.44;99503.28;5063773;28;20045;-74
2021/07/31 09:34:32;;;;;;;9.48;6.85;;;;;;;27.53;55.44;99508.22;5053362;28;20099;-73
2021/07/31 09:37:11;;;;;;;12.20;7.22;;;;;;;27.69;55.12;99506.88;5051662;28;20052;-73
2021/07/31 09:39:57;;;;;;;10.32;6.45;;;;;;;27.78;54.40;99510.19;5051363;28;20496;-74
2021/07/31 09:42:31;;;;;;;10.60;6.57;;;;;;;27.83;54.85;99513.97;5052965;28;20048;-74
2021/07/31 09:45:00;;;;;;;8.52;6.70;;;;;;;27.88;54.07;99510.53;5052898;28;20060;-74
2021/07/31 09:47:28;;;;;;;7.35;5.35;;;;;;;27.85;53.48;99505.50;5052982;28;20498;-74
2021/07/31 09:49:59;;;;;;;7.07;5.22;;;;;;;28.02;51.99;99500.34;5052978;28;20502;-74
2021/07/31 09:52:28;;;;;;;8.23;5.60;;;;;;;28.19;52.42;99501.44;5052964;28;20095;-74
2021/07/31 09:54:58;;;;;;;8.93;5.95;;;;;;;28.32;51.87;99512.31;5052641;28;20447;-74
2021/07/31 09:57:28;;;;;;;12.52;5.90;;;;;;;28.35;51.76;99513.75;5052544;28;20049;-75
2021/07/31 10:00:00;;;;;;;7.78;5.40;;;;;;;28.39;51.43;99513.09;5053078;28;20049;-74
2021/07/31 10:02:28;;;;;;;7.65;5.45;;;;;;;28.61;50.83;99505.28;5052718;28;20098;-75
2021/07/31 10:04:58;;;;;;;7.53;5.30;;;;;;;28.83;49.21;99502.06;5052762;28;20045;-74
2021/07/31 10:07:27;;;;;;;9.75;5.50;;;;;;;28.81;49.77;99510.53;5052414;28;20041;-75
2021/07/31 10:09:58;;;;;;;8.23;5.82;;;;;;;29.10;49.53;99508.13;5052746;28;20457;-74
2021/07/31 10:12:27;;;;;;;8.18;5.88;;;;;;;29.00;49.99;99515.00;5052911;28;20098;-74
2021/07/31 10:14:55;;;;;;;9.80;6.25;;;;;;;28.95;51.19;99512.13;5052736;28;20059;-74
2021/07/31 10:17:28;;;;;;;9.38;5.32;;;;;;;29.01;50.29;99511.16;5056466;28;20454;-74
2021/07/31 10:19:59;;;;;;;7.35;5.82;;;;;;;28.72;51.23;99511.91;5056715;28;20044;-74
2021/07/31 10:22:44;;;;;;;7.88;5.57;;;;;;;28.61;52.08;99509.94;5056864;28;20044;-74
2021/07/31 10:25:13;;;;;;;9.50;5.03;;;;;;;28.43;52.56;99514.31;5056281;28;20061;-74
2021/07/31 10:27:41;;;;;;;8.40;5.07;;;;;;;28.36;52.44;99513.53;5056572;28;20399;-74
2021/07/31 10:30:31;;;;;;;8.60;4.80;;;;;;;28.18;53.00;99508.84;5056448;28;20041;-73
2021/07/31 10:32:59;;;;;;;7.68;5.13;;;;;;;28.35;53.15;99513.75;5056589;28;20115;-74
2021/07/31 10:35:37;;;;;;;6.20;4.90;;;;;;;28.48;51.63;99511.75;5056545;28;20090;-74
2021/07/31 10:38:08;;;;;;;6.60;5.00;;;;;;;28.43;52.16;99502.50;5056339;28;20072;-74
2021/07/31 10:40:46;;;;;;;5.97;4.30;;;;;;;28.20;51.63;99506.72;5056133;28;20037;-74
2021/07/31 10:43:15;;;;;;;5.88;3.92;;;;;;;28.34;51.35;99517.56;5056495;28;20045;-73
2021/07/31 10:45:44;;;;;;;6.10;4.13;;;;;;;28.49;49.98;99510.69;5055890;28;20460;-73
2021/07/31 10:48:37;;;;;;;5.50;3.70;;;;;;;28.45;50.37;99503.94;5056215;28;20149;-73
2021/07/31 10:51:08;;;;;;;6.35;3.10;;;;;;;28.63;49.10;99507.78;5056094;28;20045;-73
2021/07/31 10:53:53;;;;;;;4.50;3.50;;;;;;;28.67;49.04;99514.50;5055962;28;20048;-73
2021/07/31 10:56:21;;;;;;;5.85;3.47;;;;;;;28.63;48.40;99518.75;5055953;28;20048;-73
2021/07/31 10:59:15;;;;;;;4.72;3.40;;;;;;;28.77;48.07;99525.81;5055724;28;20044;-74
2021/07/31 11:01:44;;;;;;;6.10;3.40;;;;;;;28.86;46.41;99518.94;5055474;28;20052;-73
2021/07/31 11:04:45;;;;;;;5.78;3.60;;;;;;;29.02;46.74;99521.09;5055886;28;20045;-73
2021/07/31 11:07:15;;;;;;;5.30;3.30;;;;;;;29.32;45.70;99526.63;5054472;28;20055;-74
2021/07/31 11:10:21;;;;;;;6.70;3.38;;;;;;;29.42;44.63;99528.81;5055266;28;20151;-74
2021/07/31 11:12:49;;;;;;;5.25;3.33;;;;;;;29.31;45.11;99526.84;5055210;28;20056;-74
2021/07/31 11:15:19;;;;;;;4.95;3.40;;;;;;;29.31;44.42;99522.19;5055819;28;20045;-73
2021/07/31 11:17:55;;;;;;;5.88;3.40;;;;;;;29.47;43.81;99512.47;5053918;28;20053;-74
2021/07/31 11:20:28;;;;;;;4.18;2.78;;;;;;;29.55;42.40;99509.44;5055393;28;20041;-74
2021/07/31 11:23:04;;;;;;;5.28;3.15;;;;;;;29.36;43.12;99514.09;5055454;28;20117;-74
2021/07/31 11:25:32;;;;;;;5.18;3.28;;;;;;;29.62;42.12;99512.06;5055220;28;20493;-75
2021/07/31 11:28:01;;;;;;;5.55;2.88;;;;;;;29.60;40.64;99514.22;5054801;28;20059;-73
2021/07/31 11:30:38;;;;;;;4.53;2.78;;;;;;;29.45;40.05;99517.38;5055406;28;20049;-74
2021/07/31 11:33:31;;;;;;;4.82;2.88;;;;;;;29.42;41.45;99501.34;5055454;28;20049;-74
2021/07/31 11:36:11;;;;;;;4.43;3.10;;;;;;;29.45;41.69;99506.38;5055294;28;20041;-74
2021/07/31 11:38:42;;;;;;;4.22;2.92;;;;;;;29.56;39.54;99502.88;5054997;28;20114;-74
2021/07/31 11:41:11;;;;;;;4.05;2.90;;;;;;;29.38;39.73;99511.13;5055066;28;20064;-73
2021/07/31 11:43:50;;;;;;;5.97;3.20;;;;;;;29.32;41.13;99501.06;5055107;28;20052;-74